Lexington, KY

11:03 AM EST on November 28, 2014 (GMT -0500)
Capital City | Change Station
CLOSE
Current Station
Airport
Location: Frankfort,
Elevation: 804 ft
Nearby Weather Stations

Elev 804 ft 38.18 °N, 84.90 °W | Updated 10 minutes ago

Partly Cloudy
Partly Cloudy
30 °F
Feels Like 24 °F
N
6
Wind Variable Wind from SW

Today
High -- | Low -- °F
--% Chance of Precip.
Yesterday
High -- | Low -- °F
Precip. -- in
7:32 AM 5:19 PM
Waxing Crescent, 41% visible
Pressure 30.42 in
Visibility 10.0 miles
Clouds Mostly Cloudy 7500 ft
Windchill 24 °F
Dew Point 19 °F
Humidity 64%
Rainfall 0.00 in
Snow Depth Not available.
UV 1 out of 12
Pollen .10 out of 12
Air Quality Not available.
Flu Activity Not available.
METAR KFFT 281553Z AUTO 23005KT 10SM BKN075 M01/M07 A3039 RMK AO2 SLP300 T10111072

More Conditions Fewer Conditions

Pressure 30.42 in
Visibility 10.0 miles
Clouds Mostly Cloudy 7500 ft
Windchill 24 °F
Dew Point 19 °F
Humidity 64%
Rainfall 0.00 in
Snow Depth Not available.
UV 1 out of 12
Pollen .10 out of 12
Air Quality Not available.
Flu Activity Not available.
METAR KFFT 281553Z AUTO 23005KT 10SM BKN075 M01/M07 A3039 RMK AO2 SLP300 T10111072

More Conditions Fewer Conditions

10-Day Weather Forecast

Almanac

Astronomy

Nov. 28, 2014 Rise Set
Actual Time
Civil Twilight
Nautical Twilight
Astronomical Twilight
Moon
Length of Visible Light
Length of Day
Tomorrow will be .
, % of the Moon is Illuminated

Today's Extremes

State Highs State Lows

Community

WunderPhotos

Upload Photos

1,774,231 photos uploaded!

WunderBlogs® & News

Nearby

Air Quality

  Air Quality AQ Index Pollutant
Not available.

Snow Depth

Station Depth Elevation

Earthquake Activity

City Distance Mag. Time & Date
Minimum magnitude displayed is 2.5.

Coastal Water Temperatures

Place Temperature

Nearby Weather Stations